Little C — WCX810 — position and weather

sailwx.info

Track history (hours):
 
Tides and Currents Weather Stations Pressure Air Temp Water Temp Dewpoint Dewpoint Depression Visibility Wind Speed Wind Dir Waves Ship Positions

Little C

Last reported at 2017-Dec-18 12:18 UTC. Time now 2017-Dec-18 22:36 UTC.
Position N 40°43' W 074°03'.

Type: Tug. MMSI: 367308350.

Date/timePositionNaut miles runAvg speedWind from/ knotsBaromVisibWave heightAir tempDewpointWater temp
2017-Dec-18 12:18N 40°43' W 074°03'0 0.0
2017-Dec-18 12:00N 40°43' W 074°03'0 0.0
2017-Dec-18 11:30N 40°43' W 074°03'0 0.0
2017-Dec-18 11:00N 40°43' W 074°03'0 0.0
2017-Dec-18 10:30N 40°43' W 074°03'0 0.0
2017-Dec-18 10:00N 40°43' W 074°03'  
2017-Dec-14 18:30N 40°46' W 074°01'0 0.0
2017-Dec-14 18:00N 40°46' W 074°01'0 0.0
2017-Dec-14 17:30N 40°46' W 074°01'0 0.0
2017-Dec-14 17:00N 40°46' W 074°01'0 0.0
2017-Dec-14 16:30N 40°46' W 074°01'0 0.1
2017-Dec-14 16:00N 40°46' W 074°01'3 3.1
2017-Dec-14 15:01N 40°43' W 074°02'1 2.9
2017-Dec-14 14:31N 40°41' W 074°02'2 3.2
2017-Dec-14 14:01N 40°40' W 074°01'1 2.5
2017-Dec-14 13:31N 40°40' W 073°60'0 0.8
2017-Dec-14 13:01N 40°40' W 074°00'2 4.1
2017-Dec-14 12:31N 40°42' W 074°01'2 3.1
2017-Dec-14 12:01N 40°43' W 074°03'0 0.0
2017-Dec-14 11:30N 40°43' W 074°03'0 0.0
2017-Dec-14 11:01N 40°43' W 074°03'  
2017-Dec-08 17:52N 40°43' W 074°03'2 4.5
2017-Dec-08 17:30N 40°41' W 074°02'2 3.5
2017-Dec-08 17:00N 40°40' W 073°60'0 0.1
2017-Dec-08 16:30N 40°40' W 073°60'0 0.0
2017-Dec-08 16:00N 40°40' W 073°60'0 0.1
2017-Dec-08 15:30N 40°40' W 073°60'0 0.0
2017-Dec-08 15:00N 40°40' W 073°60'0 0.7
2017-Dec-08 14:30N 40°41' W 073°59'0 0.1
2017-Dec-08 14:00N 40°41' W 073°59'0 0.0
2017-Dec-08 13:30N 40°41' W 073°59'0 0.3
2017-Dec-08 13:00N 40°41' W 073°60'1 2.6
2017-Dec-08 12:30N 40°40' W 074°01'  
Track history (hours):
 
Tides and Currents Weather Stations Pressure Air Temp Water Temp Dewpoint Dewpoint Depression Visibility Wind Speed Wind Dir Waves Ship Positions

Little C

Last reported at 2017-Dec-18 12:18 UTC. Time now 2017-Dec-18 22:36 UTC.
Position N 40°43' W 074°03'.

Type: Tug. MMSI: 367308350.

Date/timePositionNaut miles runAvg speedWind from/ knotsBaromVisibWave heightAir tempDewpointWater temp
2017-Dec-18 12:18N 40°43' W 074°03'0 0.0
2017-Dec-18 12:00N 40°43' W 074°03'0 0.0
2017-Dec-18 11:30N 40°43' W 074°03'0 0.0
2017-Dec-18 11:00N 40°43' W 074°03'0 0.0
2017-Dec-18 10:30N 40°43' W 074°03'0 0.0
2017-Dec-18 10:00N 40°43' W 074°03'  
2017-Dec-14 18:30N 40°46' W 074°01'0 0.0
2017-Dec-14 18:00N 40°46' W 074°01'0 0.0
2017-Dec-14 17:30N 40°46' W 074°01'0 0.0
2017-Dec-14 17:00N 40°46' W 074°01'0 0.0
2017-Dec-14 16:30N 40°46' W 074°01'0 0.1
2017-Dec-14 16:00N 40°46' W 074°01'3 3.1
2017-Dec-14 15:01N 40°43' W 074°02'1 2.9
2017-Dec-14 14:31N 40°41' W 074°02'2 3.2
2017-Dec-14 14:01N 40°40' W 074°01'1 2.5
2017-Dec-14 13:31N 40°40' W 073°60'0 0.8
2017-Dec-14 13:01N 40°40' W 074°00'2 4.1
2017-Dec-14 12:31N 40°42' W 074°01'2 3.1
2017-Dec-14 12:01N 40°43' W 074°03'0 0.0
2017-Dec-14 11:30N 40°43' W 074°03'0 0.0
2017-Dec-14 11:01N 40°43' W 074°03'  
2017-Dec-08 17:52N 40°43' W 074°03'2 4.5
2017-Dec-08 17:30N 40°41' W 074°02'2 3.5
2017-Dec-08 17:00N 40°40' W 073°60'0 0.1
2017-Dec-08 16:30N 40°40' W 073°60'0 0.0
2017-Dec-08 16:00N 40°40' W 073°60'0 0.1
2017-Dec-08 15:30N 40°40' W 073°60'0 0.0
2017-Dec-08 15:00N 40°40' W 073°60'0 0.7
2017-Dec-08 14:30N 40°41' W 073°59'0 0.1
2017-Dec-08 14:00N 40°41' W 073°59'0 0.0
2017-Dec-08 13:30N 40°41' W 073°59'0 0.3
2017-Dec-08 13:00N 40°41' W 073°60'1 2.6
2017-Dec-08 12:30N 40°40' W 074°01'  

Dump ship's entire track history